createdAt,value
2023-05-16T00:01:30.711Z,99.90
2023-05-16T00:03:58.197Z,99.90
2023-05-16T00:06:25.612Z,99.90
2023-05-16T00:08:52.851Z,99.90
2023-05-16T00:11:20.060Z,99.90
2023-05-16T00:13:47.928Z,99.90
2023-05-16T00:16:15.513Z,99.90
2023-05-16T00:18:45.882Z,99.90
2023-05-16T00:21:13.856Z,99.90
2023-05-16T00:23:40.981Z,99.90
2023-05-16T00:26:08.218Z,99.90
2023-05-16T00:28:35.404Z,99.90
2023-05-16T00:31:02.494Z,99.90
2023-05-16T00:33:29.582Z,99.90
2023-05-16T00:35:56.708Z,99.90
2023-05-16T00:38:25.092Z,99.90
2023-05-16T00:40:52.289Z,99.90
2023-05-16T00:43:19.382Z,99.90
2023-05-16T00:45:46.533Z,99.90
2023-05-16T00:48:15.374Z,99.90
2023-05-16T00:50:43.033Z,99.90
2023-05-16T00:53:10.595Z,99.90
2023-05-16T00:55:38.685Z,99.90
2023-05-16T00:58:06.920Z,99.90
2023-05-16T01:00:34.368Z,99.90
2023-05-16T01:03:01.951Z,99.90
2023-05-16T01:05:30.114Z,99.90
2023-05-16T01:07:57.389Z,99.90
2023-05-16T01:10:25.799Z,99.90
2023-05-16T01:13:19.634Z,99.90
2023-05-16T01:16:03.054Z,99.90
2023-05-16T01:18:43.861Z,99.90
2023-05-16T01:21:35.899Z,99.90
2023-05-16T01:24:14.127Z,99.90
2023-05-16T01:26:42.108Z,99.90
2023-05-16T01:29:09.672Z,99.90
2023-05-16T01:31:36.884Z,99.90
2023-05-16T01:34:04.087Z,99.90
2023-05-16T01:36:31.682Z,99.90
2023-05-16T01:39:30.704Z,99.90
2023-05-16T01:42:19.446Z,99.90
2023-05-16T01:44:56.439Z,99.90
2023-05-16T01:47:27.234Z,99.90
2023-05-16T01:50:10.495Z,99.90
2023-05-16T01:52:54.130Z,99.90
2023-05-16T01:55:44.649Z,99.90
2023-05-16T01:58:14.012Z,99.90
2023-05-16T02:00:42.022Z,99.90
2023-05-16T02:03:09.636Z,99.90
2023-05-16T02:05:36.992Z,99.90
2023-05-16T02:08:04.812Z,99.90
2023-05-16T02:10:31.965Z,99.90
2023-05-16T02:12:59.080Z,99.90
2023-05-16T02:15:26.499Z,99.90
2023-05-16T02:17:54.014Z,99.90
2023-05-16T02:20:21.181Z,99.90
2023-05-16T02:22:50.201Z,99.90
2023-05-16T02:25:17.456Z,99.90
2023-05-16T02:27:44.641Z,99.90
2023-05-16T02:30:12.420Z,99.90
2023-05-16T02:32:45.485Z,99.90
2023-05-16T02:35:12.840Z,99.90
2023-05-16T02:37:40.841Z,99.90
2023-05-16T02:40:09.224Z,99.90
2023-05-16T02:42:36.420Z,99.90
2023-05-16T02:45:03.756Z,99.90
2023-05-16T02:47:31.119Z,99.90
2023-05-16T02:49:58.336Z,99.90
2023-05-16T02:52:25.515Z,99.90
2023-05-16T02:57:22.659Z,99.90
2023-05-16T02:59:49.823Z,99.90
2023-05-16T03:02:17.004Z,99.90
2023-05-16T03:04:44.059Z,99.90
2023-05-16T03:07:11.186Z,99.90
2023-05-16T03:09:38.348Z,99.90
2023-05-16T03:12:06.999Z,99.90
2023-05-16T03:14:34.387Z,99.90
2023-05-16T03:17:01.544Z,99.90
2023-05-16T03:19:28.677Z,99.90
2023-05-16T03:21:55.857Z,99.90
2023-05-16T03:24:23.273Z,99.90
2023-05-16T03:26:50.571Z,99.90
2023-05-16T03:29:18.028Z,99.90
2023-05-16T03:31:45.221Z,99.90
2023-05-16T03:34:12.360Z,99.90
2023-05-16T03:36:40.508Z,99.90
2023-05-16T03:39:09.024Z,99.90
2023-05-16T03:41:36.334Z,99.90
2023-05-16T03:44:03.639Z,99.90
2023-05-16T03:46:30.925Z,99.90
2023-05-16T03:48:58.139Z,99.90
2023-05-16T03:51:25.360Z,99.90
2023-05-16T03:53:52.552Z,99.90
2023-05-16T03:56:19.705Z,99.90
2023-05-16T03:58:46.882Z,99.90
2023-05-16T04:01:14.384Z,99.90
2023-05-16T04:03:41.557Z,99.90
2023-05-16T04:06:09.005Z,99.90
2023-05-16T04:08:36.224Z,99.90
2023-05-16T04:11:03.522Z,99.90
2023-05-16T04:13:31.326Z,99.90
2023-05-16T04:15:58.601Z,99.90
2023-05-16T04:18:25.733Z,99.90
2023-05-16T04:20:52.904Z,99.90
2023-05-16T04:23:20.012Z,99.90
2023-05-16T04:25:47.283Z,99.90
2023-05-16T04:28:14.445Z,99.90
2023-05-16T04:30:41.689Z,99.90
2023-05-16T04:33:08.795Z,99.90
2023-05-16T04:35:36.007Z,99.90
2023-05-16T04:38:03.119Z,99.90
2023-05-16T04:40:30.237Z,99.90
2023-05-16T04:42:57.456Z,99.90
2023-05-16T04:45:24.937Z,99.90
2023-05-16T04:47:52.505Z,99.90
2023-05-16T04:50:19.645Z,99.90
2023-05-16T04:52:46.939Z,1.00
2023-05-16T04:55:14.071Z,1.00
2023-05-16T04:57:41.264Z,99.90
2023-05-16T05:00:10.643Z,47.00
2023-05-16T05:02:39.088Z,1.00
2023-05-16T05:05:06.997Z,1.00
2023-05-16T05:07:34.286Z,99.90
2023-05-16T05:10:02.513Z,99.90
2023-05-16T05:12:30.007Z,99.90
2023-05-16T05:14:57.092Z,99.90
2023-05-16T05:17:24.404Z,99.90
2023-05-16T05:19:52.307Z,99.90
2023-05-16T05:22:19.491Z,99.90
2023-05-16T05:24:46.958Z,99.90
2023-05-16T05:27:14.050Z,99.90
2023-05-16T05:29:41.247Z,99.90
2023-05-16T05:32:09.094Z,52.50
2023-05-16T05:34:36.663Z,10.00
2023-05-16T05:37:04.042Z,1.00
2023-05-16T05:39:31.251Z,1.00
2023-05-16T05:41:58.910Z,1.00
2023-05-16T05:44:26.197Z,1.00
2023-05-16T05:46:53.468Z,1.00
2023-05-16T05:49:20.804Z,1.00
2023-05-16T05:51:48.001Z,1.00
2023-05-16T05:54:15.378Z,1.00
2023-05-16T05:56:42.419Z,1.00
2023-05-16T05:59:09.624Z,1.00
2023-05-16T06:01:36.860Z,1.00
2023-05-16T06:04:04.164Z,1.00
2023-05-16T06:06:31.968Z,1.00
2023-05-16T06:08:59.485Z,1.00
2023-05-16T06:11:27.070Z,1.00
2023-05-16T06:13:54.205Z,1.00
2023-05-16T06:16:25.600Z,1.00
2023-05-16T06:18:52.783Z,1.00
2023-05-16T06:21:19.976Z,1.00
2023-05-16T06:23:47.324Z,1.00
2023-05-16T06:26:14.443Z,1.00
2023-05-16T06:28:41.609Z,1.00
2023-05-16T06:31:08.980Z,1.00
2023-05-16T06:33:36.186Z,1.00
2023-05-16T06:36:03.255Z,1.00
2023-05-16T06:38:30.399Z,1.00
2023-05-16T06:40:57.515Z,1.00
2023-05-16T06:43:24.698Z,1.00
2023-05-16T06:45:51.864Z,1.00
2023-05-16T06:48:19.909Z,1.00
2023-05-16T06:50:53.833Z,1.00
2023-05-16T06:53:21.128Z,1.00
2023-05-16T06:55:48.676Z,1.00
2023-05-16T06:58:15.903Z,1.00
2023-05-16T07:00:44.303Z,1.00
2023-05-16T07:03:11.685Z,1.00
2023-05-16T07:05:39.260Z,1.00
2023-05-16T07:08:07.902Z,1.00
2023-05-16T07:10:35.365Z,1.00
2023-05-16T07:13:02.872Z,1.00
2023-05-16T07:15:30.341Z,1.00
2023-05-16T07:18:00.287Z,1.00
2023-05-16T07:20:27.387Z,1.00
2023-05-16T07:22:58.182Z,1.00
2023-05-16T07:25:26.349Z,1.00
2023-05-16T07:27:53.761Z,1.00
2023-05-16T07:30:21.799Z,1.00
2023-05-16T07:32:49.801Z,1.00
2023-05-16T07:35:17.173Z,1.00
2023-05-16T07:37:44.376Z,1.00
2023-05-16T07:40:12.288Z,1.00
2023-05-16T07:42:39.688Z,1.00
2023-05-16T07:45:07.826Z,1.00
2023-05-16T07:47:35.627Z,1.00
2023-05-16T07:50:02.893Z,1.00
2023-05-16T07:52:30.031Z,1.00
2023-05-16T07:54:57.680Z,1.00
2023-05-16T07:57:25.279Z,1.00
2023-05-16T07:59:53.092Z,1.00
2023-05-16T08:02:20.722Z,1.00
2023-05-16T08:04:49.184Z,1.00
2023-05-16T08:07:16.622Z,1.00
2023-05-16T08:09:43.885Z,1.00
2023-05-16T08:12:11.136Z,1.00
2023-05-16T08:14:38.315Z,1.00
2023-05-16T08:17:05.688Z,1.00
2023-05-16T08:19:33.481Z,1.00
2023-05-16T08:22:00.801Z,1.00
2023-05-16T08:24:27.987Z,1.00
2023-05-16T08:26:55.440Z,1.00
2023-05-16T08:29:22.759Z,1.00
2023-05-16T08:31:49.934Z,1.00
2023-05-16T08:34:17.183Z,1.00
2023-05-16T08:36:44.502Z,1.00
2023-05-16T08:39:11.892Z,1.00
2023-05-16T08:41:39.975Z,1.00
2023-05-16T08:44:07.155Z,1.00
2023-05-16T08:46:38.541Z,1.00
2023-05-16T08:49:08.184Z,1.00
2023-05-16T08:51:37.190Z,1.00
2023-05-16T08:54:09.409Z,1.00
2023-05-16T08:56:37.490Z,1.00
2023-05-16T08:59:05.289Z,1.00
2023-05-16T09:01:32.821Z,1.00
2023-05-16T09:04:00.750Z,1.00
2023-05-16T09:06:28.799Z,1.00
2023-05-16T09:08:56.614Z,1.00
2023-05-16T09:11:24.667Z,1.00
2023-05-16T09:13:51.830Z,1.00
2023-05-16T09:16:20.642Z,1.00
2023-05-16T09:18:57.388Z,1.00
2023-05-16T09:21:36.673Z,1.00
2023-05-16T09:24:10.889Z,1.00
2023-05-16T09:26:40.366Z,1.00
2023-05-16T09:29:14.715Z,1.00
2023-05-16T09:31:42.009Z,1.00
2023-05-16T09:34:12.943Z,1.00
2023-05-16T09:36:42.152Z,1.00
2023-05-16T09:39:11.500Z,1.00
2023-05-16T09:41:38.767Z,1.00
2023-05-16T09:44:08.824Z,1.00
2023-05-16T09:46:38.397Z,1.00
2023-05-16T09:49:05.688Z,1.00
2023-05-16T09:51:33.691Z,1.00
2023-05-16T09:54:01.046Z,1.00
2023-05-16T09:56:30.433Z,1.00
2023-05-16T09:58:58.010Z,1.00
2023-05-16T10:01:26.253Z,1.00
2023-05-16T10:03:53.536Z,1.00
2023-05-16T10:06:21.386Z,1.00
2023-05-16T10:08:49.734Z,1.00
2023-05-16T10:11:18.656Z,23.00
2023-05-16T10:13:50.693Z,28.80
2023-05-16T10:16:22.169Z,59.70
2023-05-16T10:18:50.458Z,99.90
2023-05-16T10:21:19.949Z,99.90
2023-05-16T10:23:50.834Z,99.90
2023-05-16T10:26:18.664Z,99.90
2023-05-16T10:28:46.573Z,99.90
2023-05-16T10:31:15.672Z,99.90
2023-05-16T10:33:43.745Z,99.90
2023-05-16T10:36:12.484Z,99.90
2023-05-16T10:38:40.716Z,99.90
2023-05-16T10:41:08.859Z,99.90
2023-05-16T10:43:37.088Z,99.90
2023-05-16T10:46:11.986Z,99.90
2023-05-16T10:48:41.685Z,99.90
2023-05-16T10:51:24.107Z,99.90
2023-05-16T10:54:04.606Z,99.90
2023-05-16T10:56:33.896Z,99.90
2023-05-16T10:59:01.113Z,99.90
2023-05-16T11:01:30.585Z,99.90
2023-05-16T11:03:58.140Z,99.90
2023-05-16T11:06:35.340Z,99.90
2023-05-16T11:09:14.192Z,99.90
2023-05-16T11:11:43.164Z,99.90
2023-05-16T11:14:26.192Z,99.90
2023-05-16T11:17:21.121Z,99.90
2023-05-16T11:19:59.783Z,99.90
2023-05-16T11:22:31.248Z,99.90
2023-05-16T11:25:08.449Z,99.90
2023-05-16T11:27:46.652Z,99.90
2023-05-16T11:30:19.617Z,99.90
2023-05-16T11:32:49.104Z,99.90
2023-05-16T11:35:18.126Z,99.90
2023-05-16T11:37:47.293Z,99.90
2023-05-16T11:40:15.005Z,99.90
2023-05-16T11:42:46.149Z,99.90
2023-05-16T11:45:20.001Z,99.90
2023-05-16T11:47:49.010Z,99.90
2023-05-16T11:50:21.303Z,99.90
2023-05-16T11:52:54.244Z,99.90
2023-05-16T11:55:39.571Z,99.90
2023-05-16T11:58:09.127Z,99.90
2023-05-16T12:00:36.512Z,99.90
2023-05-16T12:03:06.171Z,99.90
2023-05-16T12:05:35.273Z,99.90
2023-05-16T12:08:05.889Z,99.90
2023-05-16T12:10:36.287Z,99.90
2023-05-16T12:13:04.104Z,99.90
2023-05-16T12:15:31.771Z,99.90
2023-05-16T12:17:59.488Z,99.90
2023-05-16T12:20:27.804Z,99.90
2023-05-16T12:22:58.601Z,99.90
2023-05-16T12:25:33.233Z,99.90
2023-05-16T12:28:01.201Z,99.90
2023-05-16T12:30:30.599Z,99.90
2023-05-16T12:33:05.832Z,99.90
2023-05-16T12:35:35.571Z,99.90
2023-05-16T12:38:06.782Z,99.90
2023-05-16T12:40:33.962Z,99.90
2023-05-16T12:43:01.300Z,99.90
2023-05-16T12:45:28.649Z,99.90
2023-05-16T12:47:55.895Z,99.90
2023-05-16T12:50:23.270Z,99.90
2023-05-16T12:52:58.640Z,99.90
2023-05-16T12:55:26.414Z,93.60
2023-05-16T12:57:55.765Z,90.90
2023-05-16T13:00:23.594Z,99.70
2023-05-16T13:02:50.969Z,74.40
2023-05-16T13:05:18.302Z,48.50
2023-05-16T13:07:45.694Z,1.00
2023-05-16T13:10:13.013Z,1.00
2023-05-16T13:12:41.136Z,1.00
2023-05-16T13:15:12.087Z,55.00
2023-05-16T13:17:41.434Z,99.10
2023-05-16T13:20:10.466Z,99.90
2023-05-16T13:22:37.896Z,99.90
2023-05-16T13:25:06.476Z,82.70
2023-05-16T13:27:34.386Z,62.70
2023-05-16T13:30:02.181Z,73.40
2023-05-16T13:32:29.556Z,64.60
2023-05-16T13:34:57.253Z,60.20
2023-05-16T13:37:27.488Z,80.40
2023-05-16T13:39:57.272Z,55.50
2023-05-16T13:42:24.562Z,61.80
2023-05-16T13:44:51.790Z,42.70
2023-05-16T13:47:18.998Z,37.40
2023-05-16T13:49:46.370Z,42.60
2023-05-16T13:52:13.738Z,17.40
2023-05-16T13:54:41.717Z,17.10
2023-05-16T13:57:09.023Z,8.80
2023-05-16T14:02:06.741Z,1.00
2023-05-16T14:04:33.943Z,1.00
2023-05-16T14:07:01.313Z,1.00
2023-05-16T14:09:28.515Z,1.00
2023-05-16T14:11:55.818Z,15.90
2023-05-16T14:14:22.991Z,1.00
2023-05-16T14:16:50.271Z,19.30
2023-05-16T14:19:19.447Z,32.70
2023-05-16T14:21:46.972Z,98.20
2023-05-16T14:24:14.286Z,99.90
2023-05-16T14:26:41.485Z,99.90
2023-05-16T14:29:08.725Z,98.80
2023-05-16T14:31:38.713Z,94.40
2023-05-16T14:34:06.168Z,87.70
2023-05-16T14:36:33.271Z,99.90
2023-05-16T14:39:00.717Z,99.90
2023-05-16T14:41:27.945Z,99.90
2023-05-16T14:43:56.701Z,99.90
2023-05-16T14:46:23.901Z,99.90
2023-05-16T14:48:51.401Z,99.90
2023-05-16T14:51:18.658Z,99.90
2023-05-16T14:53:47.097Z,99.90
2023-05-16T14:56:14.558Z,99.90
2023-05-16T14:58:41.723Z,99.90
2023-05-16T15:01:08.954Z,99.90
2023-05-16T15:03:53.831Z,99.90
2023-05-16T15:06:22.242Z,99.90
2023-05-16T15:08:49.451Z,99.90
2023-05-16T15:11:16.692Z,99.90
2023-05-16T15:13:43.904Z,99.90
2023-05-16T15:16:12.327Z,99.90
2023-05-16T15:18:40.852Z,99.90
2023-05-16T15:21:09.268Z,99.90
2023-05-16T15:23:37.030Z,99.90
2023-05-16T15:26:04.974Z,99.90
2023-05-16T15:28:32.271Z,99.90
2023-05-16T15:30:59.526Z,99.90
2023-05-16T15:33:26.779Z,99.90
2023-05-16T15:35:54.298Z,99.90
2023-05-16T15:38:21.453Z,99.90
2023-05-16T15:40:55.028Z,99.90
2023-05-16T15:43:28.596Z,99.90
2023-05-16T15:45:55.832Z,99.90
2023-05-16T15:48:23.036Z,99.90
2023-05-16T15:50:50.260Z,99.90
2023-05-16T15:53:17.465Z,99.90
2023-05-16T15:55:44.791Z,99.90
2023-05-16T15:58:11.975Z,99.90
2023-05-16T16:00:41.292Z,99.90
2023-05-16T16:03:10.188Z,99.90
2023-05-16T16:05:37.439Z,99.90
2023-05-16T16:08:04.954Z,99.90
2023-05-16T16:10:32.254Z,99.90
2023-05-16T16:13:01.715Z,99.90
2023-05-16T16:15:32.535Z,99.90
2023-05-16T16:18:00.854Z,99.90
2023-05-16T16:20:28.441Z,99.90
2023-05-16T16:22:55.834Z,99.90
2023-05-16T16:25:23.080Z,99.90
2023-05-16T16:27:50.323Z,99.90
2023-05-16T16:30:17.408Z,99.90
2023-05-16T16:32:44.613Z,99.90
2023-05-16T16:35:11.922Z,99.90
2023-05-16T16:37:39.253Z,99.90
2023-05-16T16:40:09.675Z,99.90
2023-05-16T16:42:39.064Z,99.90
2023-05-16T16:45:06.841Z,99.90
2023-05-16T16:47:34.174Z,99.90
2023-05-16T16:50:01.589Z,99.90
2023-05-16T16:52:29.149Z,99.90
2023-05-16T16:54:56.393Z,99.90
2023-05-16T16:57:23.635Z,99.90
2023-05-16T16:59:51.040Z,99.90
2023-05-16T17:02:18.445Z,1.00
2023-05-16T17:04:45.684Z,1.00
2023-05-16T17:07:13.391Z,1.00
2023-05-16T17:09:42.660Z,1.00
2023-05-16T17:12:19.092Z,1.00
2023-05-16T17:14:50.712Z,1.00
2023-05-16T17:17:18.880Z,1.00
2023-05-16T17:19:47.243Z,1.00
2023-05-16T17:22:14.942Z,1.00
2023-05-16T17:24:42.596Z,1.00
2023-05-16T17:27:10.226Z,1.00
2023-05-16T17:29:37.914Z,1.00
2023-05-16T17:32:06.641Z,1.00
2023-05-16T17:34:33.923Z,3.10
2023-05-16T17:37:01.679Z,1.30
2023-05-16T17:39:29.664Z,1.00
2023-05-16T17:41:57.930Z,1.00
2023-05-16T17:44:25.125Z,1.00
2023-05-16T17:46:52.465Z,1.00
2023-05-16T17:49:20.116Z,1.00
2023-05-16T17:51:52.964Z,1.00
2023-05-16T17:54:21.658Z,1.00
2023-05-16T17:56:51.157Z,1.00
2023-05-16T17:59:19.395Z,1.00
2023-05-16T18:01:46.838Z,1.00
2023-05-16T18:04:14.645Z,1.00
2023-05-16T18:06:42.112Z,6.80
2023-05-16T18:09:10.818Z,13.10
2023-05-16T18:11:40.793Z,20.10
2023-05-16T18:14:13.158Z,23.80
2023-05-16T18:16:40.474Z,20.70
2023-05-16T18:19:08.880Z,22.50
2023-05-16T18:21:38.113Z,26.60
2023-05-16T18:24:08.376Z,24.50
2023-05-16T18:26:36.435Z,24.70
2023-05-16T18:29:03.975Z,31.60
2023-05-16T18:31:33.818Z,39.80
2023-05-16T18:34:04.110Z,45.00
2023-05-16T18:36:31.911Z,52.70
2023-05-16T18:38:59.589Z,56.70
2023-05-16T18:41:27.653Z,60.30
2023-05-16T18:43:55.126Z,66.10
2023-05-16T18:46:22.380Z,55.30
2023-05-16T18:48:49.877Z,50.00
2023-05-16T18:51:17.769Z,56.50
2023-05-16T18:53:45.043Z,60.00
2023-05-16T18:56:14.542Z,64.30
2023-05-16T18:58:43.218Z,61.20
2023-05-16T19:01:11.228Z,63.30
2023-05-16T19:03:38.755Z,69.30
2023-05-16T19:06:06.853Z,75.50
2023-05-16T19:08:46.892Z,75.60
2023-05-16T19:11:16.403Z,75.00
2023-05-16T19:13:44.664Z,58.50
2023-05-16T19:16:12.119Z,61.20
2023-05-16T19:18:39.598Z,59.70
2023-05-16T19:21:13.735Z,38.00
2023-05-16T19:23:42.132Z,29.60
2023-05-16T19:26:10.149Z,25.30
2023-05-16T19:28:38.225Z,25.30
2023-05-16T19:31:05.697Z,13.10
2023-05-16T19:33:33.910Z,10.70
2023-05-16T19:36:02.749Z,13.60
2023-05-16T19:38:30.248Z,1.00
2023-05-16T19:40:57.406Z,1.00
2023-05-16T19:43:24.657Z,1.00
2023-05-16T19:45:51.922Z,1.00
2023-05-16T19:48:19.187Z,1.00
2023-05-16T19:50:46.593Z,1.00
2023-05-16T19:53:13.793Z,1.00
2023-05-16T19:55:41.311Z,7.90
2023-05-16T19:58:09.007Z,7.00
2023-05-16T20:00:36.276Z,1.00
2023-05-16T20:03:03.601Z,1.00
2023-05-16T20:05:31.178Z,1.00
2023-05-16T20:07:58.627Z,1.00
2023-05-16T20:10:25.963Z,1.00
2023-05-16T20:12:53.143Z,7.80
2023-05-16T20:15:20.401Z,9.80
2023-05-16T20:17:47.583Z,11.10
2023-05-16T20:20:14.984Z,17.20
2023-05-16T20:22:42.228Z,16.20
2023-05-16T20:25:12.132Z,25.80
2023-05-16T20:27:39.406Z,34.10
2023-05-16T20:30:07.990Z,39.40
2023-05-16T20:32:35.604Z,44.80
2023-05-16T20:35:05.150Z,54.40
2023-05-16T20:37:32.365Z,56.20
2023-05-16T20:39:59.557Z,60.00
2023-05-16T20:42:26.741Z,57.00
2023-05-16T20:44:53.985Z,57.80
2023-05-16T20:47:22.030Z,55.00
2023-05-16T20:49:49.261Z,51.70
2023-05-16T20:52:16.521Z,45.40
2023-05-16T20:54:43.717Z,37.50
2023-05-16T20:57:11.141Z,28.90
2023-05-16T20:59:38.393Z,25.40
2023-05-16T21:02:06.457Z,12.60
2023-05-16T21:04:33.714Z,1.00
2023-05-16T21:07:00.962Z,1.00
2023-05-16T21:09:28.111Z,1.00
2023-05-16T21:11:55.334Z,1.00
2023-05-16T21:14:22.462Z,1.00
2023-05-16T21:16:49.663Z,1.00
2023-05-16T21:19:17.123Z,1.00
2023-05-16T21:21:44.316Z,1.00
2023-05-16T21:24:11.534Z,1.00
2023-05-16T21:26:38.677Z,1.00
2023-05-16T21:29:05.936Z,1.00
2023-05-16T21:31:33.059Z,1.00
2023-05-16T21:34:00.356Z,1.00
2023-05-16T21:36:27.512Z,1.00
2023-05-16T21:38:54.722Z,1.00
2023-05-16T21:41:22.645Z,1.00
2023-05-16T21:43:49.880Z,1.00
2023-05-16T21:46:17.072Z,1.00
2023-05-16T21:48:44.538Z,1.00
2023-05-16T21:51:11.817Z,1.00
2023-05-16T21:53:39.047Z,1.00
2023-05-16T21:56:06.694Z,1.00
2023-05-16T21:58:33.920Z,1.00
2023-05-16T22:01:01.475Z,1.00
2023-05-16T22:03:28.941Z,1.00
2023-05-16T22:05:58.187Z,1.00
2023-05-16T22:08:25.541Z,1.00
2023-05-16T22:10:53.102Z,1.00
2023-05-16T22:13:21.078Z,1.00
2023-05-16T22:16:03.442Z,1.00
2023-05-16T22:18:33.060Z,1.00
2023-05-16T22:21:00.862Z,1.00
2023-05-16T22:23:28.122Z,1.00
2023-05-16T22:25:55.663Z,1.00
2023-05-16T22:28:22.811Z,1.00
2023-05-16T22:30:49.971Z,1.00
2023-05-16T22:33:17.300Z,1.00
2023-05-16T22:35:44.502Z,1.00
2023-05-16T22:38:12.022Z,1.00
2023-05-16T22:40:41.329Z,1.00
2023-05-16T22:43:08.511Z,1.00
2023-05-16T22:45:35.808Z,1.00
2023-05-16T22:48:03.042Z,1.00
2023-05-16T22:50:30.476Z,1.00
2023-05-16T22:52:57.713Z,1.00
2023-05-16T22:55:25.115Z,1.00
2023-05-16T22:57:54.898Z,1.00
2023-05-16T23:00:24.139Z,1.00
2023-05-16T23:02:51.517Z,7.30
2023-05-16T23:05:18.931Z,10.50
2023-05-16T23:07:46.152Z,11.90
2023-05-16T23:10:13.376Z,7.00
2023-05-16T23:12:40.725Z,5.90
2023-05-16T23:15:10.381Z,8.10
2023-05-16T23:17:40.890Z,11.40
2023-05-16T23:20:08.669Z,18.50
2023-05-16T23:22:35.843Z,25.60
2023-05-16T23:25:03.061Z,27.20
2023-05-16T23:27:30.288Z,29.10
2023-05-16T23:29:57.657Z,34.20
2023-05-16T23:32:24.867Z,37.50
2023-05-16T23:34:52.042Z,41.60
2023-05-16T23:37:19.242Z,43.70
2023-05-16T23:39:46.402Z,52.90
2023-05-16T23:42:13.701Z,62.10
2023-05-16T23:44:42.246Z,68.80
2023-05-16T23:47:09.644Z,77.20
2023-05-16T23:49:36.794Z,80.00
2023-05-16T23:52:06.122Z,86.10
2023-05-16T23:54:33.926Z,91.40
2023-05-16T23:57:01.131Z,94.10
2023-05-16T23:59:28.440Z,94.70
